sensor_id;sensor_type;location;lat;lon;timestamp;P1;durP1;ratioP1;P2;durP2;ratioP2
66179;SDS011;52986;44.028;20.466;2023-05-10T00:01:04;11.90;;;4.97;;
66179;SDS011;52986;44.028;20.466;2023-05-10T00:03:30;13.35;;;5.30;;
66179;SDS011;52986;44.028;20.466;2023-05-10T00:05:55;13.88;;;5.13;;
66179;SDS011;52986;44.028;20.466;2023-05-10T00:08:21;12.15;;;4.72;;
66179;SDS011;52986;44.028;20.466;2023-05-10T00:10:46;10.10;;;4.22;;
66179;SDS011;52986;44.028;20.466;2023-05-10T00:13:12;11.45;;;4.50;;
66179;SDS011;52986;44.028;20.466;2023-05-10T00:15:37;11.85;;;4.90;;
66179;SDS011;52986;44.028;20.466;2023-05-10T00:18:03;10.90;;;4.93;;
66179;SDS011;52986;44.028;20.466;2023-05-10T00:20:28;10.75;;;4.68;;
66179;SDS011;52986;44.028;20.466;2023-05-10T00:22:54;11.68;;;4.85;;
66179;SDS011;52986;44.028;20.466;2023-05-10T00:25:19;11.13;;;4.88;;
66179;SDS011;52986;44.028;20.466;2023-05-10T00:27:46;10.30;;;4.60;;
66179;SDS011;52986;44.028;20.466;2023-05-10T00:30:12;11.55;;;4.82;;
66179;SDS011;52986;44.028;20.466;2023-05-10T00:32:37;13.15;;;4.55;;
66179;SDS011;52986;44.028;20.466;2023-05-10T00:35:03;11.13;;;4.63;;
66179;SDS011;52986;44.028;20.466;2023-05-10T00:37:28;10.88;;;4.22;;
66179;SDS011;52986;44.028;20.466;2023-05-10T00:39:54;13.27;;;4.75;;
66179;SDS011;52986;44.028;20.466;2023-05-10T00:42:19;12.80;;;5.05;;
66179;SDS011;52986;44.028;20.466;2023-05-10T00:44:44;15.97;;;6.03;;
66179;SDS011;52986;44.028;20.466;2023-05-10T00:47:11;13.70;;;5.45;;
66179;SDS011;52986;44.028;20.466;2023-05-10T00:49:37;12.13;;;5.07;;
66179;SDS011;52986;44.028;20.466;2023-05-10T00:52:02;11.20;;;5.15;;
66179;SDS011;52986;44.028;20.466;2023-05-10T00:54:28;10.77;;;4.80;;
66179;SDS011;52986;44.028;20.466;2023-05-10T00:56:54;11.00;;;4.50;;
66179;SDS011;52986;44.028;20.466;2023-05-10T00:59:19;10.55;;;4.65;;
66179;SDS011;52986;44.028;20.466;2023-05-10T01:01:45;11.70;;;5.20;;
66179;SDS011;52986;44.028;20.466;2023-05-10T01:04:11;13.38;;;5.65;;
66179;SDS011;52986;44.028;20.466;2023-05-10T01:06:38;12.98;;;5.60;;
66179;SDS011;52986;44.028;20.466;2023-05-10T01:09:04;10.77;;;4.63;;
66179;SDS011;52986;44.028;20.466;2023-05-10T01:11:31;10.77;;;4.65;;
66179;SDS011;52986;44.028;20.466;2023-05-10T01:14:00;11.10;;;5.15;;
66179;SDS011;52986;44.028;20.466;2023-05-10T01:16:27;11.15;;;5.03;;
66179;SDS011;52986;44.028;20.466;2023-05-10T01:18:54;11.63;;;5.00;;
66179;SDS011;52986;44.028;20.466;2023-05-10T01:24:17;12.18;;;4.75;;
66179;SDS011;52986;44.028;20.466;2023-05-10T01:30:30;11.32;;;5.00;;
66179;SDS011;52986;44.028;20.466;2023-05-10T01:33:11;10.55;;;4.57;;
66179;SDS011;52986;44.028;20.466;2023-05-10T01:35:55;12.85;;;5.50;;
66179;SDS011;52986;44.028;20.466;2023-05-10T01:41:55;12.30;;;5.50;;
66179;SDS011;52986;44.028;20.466;2023-05-10T01:47:34;10.23;;;4.45;;
66179;SDS011;52986;44.028;20.466;2023-05-10T01:50:04;11.43;;;4.95;;
66179;SDS011;52986;44.028;20.466;2023-05-10T01:55:06;10.60;;;4.35;;
66179;SDS011;52986;44.028;20.466;2023-05-10T01:57:34;14.38;;;5.60;;
66179;SDS011;52986;44.028;20.466;2023-05-10T02:00:02;10.98;;;4.70;;
66179;SDS011;52986;44.028;20.466;2023-05-10T02:02:29;9.48;;;4.15;;
66179;SDS011;52986;44.028;20.466;2023-05-10T02:05:00;10.23;;;4.22;;
66179;SDS011;52986;44.028;20.466;2023-05-10T02:07:28;10.43;;;4.60;;
66179;SDS011;52986;44.028;20.466;2023-05-10T02:09:55;11.15;;;4.85;;
66179;SDS011;52986;44.028;20.466;2023-05-10T02:12:21;12.23;;;5.20;;
66179;SDS011;52986;44.028;20.466;2023-05-10T02:14:48;11.05;;;5.13;;
66179;SDS011;52986;44.028;20.466;2023-05-10T02:17:15;12.18;;;4.97;;
66179;SDS011;52986;44.028;20.466;2023-05-10T02:19:41;14.82;;;6.10;;
66179;SDS011;52986;44.028;20.466;2023-05-10T02:22:08;11.70;;;4.90;;
66179;SDS011;52986;44.028;20.466;2023-05-10T02:24:35;11.23;;;4.90;;
66179;SDS011;52986;44.028;20.466;2023-05-10T02:27:02;11.50;;;5.22;;
66179;SDS011;52986;44.028;20.466;2023-05-10T02:29:29;11.45;;;5.00;;
66179;SDS011;52986;44.028;20.466;2023-05-10T02:31:56;12.48;;;4.80;;
66179;SDS011;52986;44.028;20.466;2023-05-10T02:34:23;10.63;;;4.68;;
66179;SDS011;52986;44.028;20.466;2023-05-10T02:36:50;9.90;;;4.50;;
66179;SDS011;52986;44.028;20.466;2023-05-10T02:39:17;10.77;;;4.65;;
66179;SDS011;52986;44.028;20.466;2023-05-10T02:41:44;11.10;;;4.82;;
66179;SDS011;52986;44.028;20.466;2023-05-10T02:44:11;12.65;;;4.97;;
66179;SDS011;52986;44.028;20.466;2023-05-10T02:46:40;11.65;;;5.05;;
66179;SDS011;52986;44.028;20.466;2023-05-10T02:49:06;10.80;;;4.32;;
66179;SDS011;52986;44.028;20.466;2023-05-10T02:51:32;12.82;;;4.93;;
66179;SDS011;52986;44.028;20.466;2023-05-10T02:54:04;11.15;;;4.80;;
66179;SDS011;52986;44.028;20.466;2023-05-10T02:56:35;11.68;;;5.05;;
66179;SDS011;52986;44.028;20.466;2023-05-10T02:59:04;9.93;;;4.47;;
66179;SDS011;52986;44.028;20.466;2023-05-10T03:01:30;9.80;;;4.18;;
66179;SDS011;52986;44.028;20.466;2023-05-10T03:03:55;11.00;;;4.53;;
66179;SDS011;52986;44.028;20.466;2023-05-10T03:06:21;10.57;;;4.55;;
66179;SDS011;52986;44.028;20.466;2023-05-10T03:08:46;11.30;;;4.80;;
66179;SDS011;52986;44.028;20.466;2023-05-10T03:11:16;11.13;;;4.43;;
66179;SDS011;52986;44.028;20.466;2023-05-10T03:16:45;10.30;;;4.57;;
66179;SDS011;52986;44.028;20.466;2023-05-10T03:21:52;10.68;;;4.50;;
66179;SDS011;52986;44.028;20.466;2023-05-10T03:24:20;10.27;;;4.30;;
66179;SDS011;52986;44.028;20.466;2023-05-10T03:26:48;9.98;;;4.18;;
66179;SDS011;52986;44.028;20.466;2023-05-10T03:29:15;9.98;;;4.10;;
66179;SDS011;52986;44.028;20.466;2023-05-10T03:31:41;10.40;;;4.03;;
66179;SDS011;52986;44.028;20.466;2023-05-10T03:34:06;10.77;;;4.70;;
66179;SDS011;52986;44.028;20.466;2023-05-10T03:36:32;11.68;;;4.72;;
66179;SDS011;52986;44.028;20.466;2023-05-10T03:38:58;10.88;;;4.80;;
66179;SDS011;52986;44.028;20.466;2023-05-10T03:41:23;11.30;;;4.85;;
66179;SDS011;52986;44.028;20.466;2023-05-10T03:43:50;11.77;;;4.38;;
66179;SDS011;52986;44.028;20.466;2023-05-10T03:46:16;12.55;;;4.82;;
66179;SDS011;52986;44.028;20.466;2023-05-10T03:48:41;13.90;;;5.53;;
66179;SDS011;52986;44.028;20.466;2023-05-10T03:51:06;11.68;;;4.55;;
66179;SDS011;52986;44.028;20.466;2023-05-10T03:53:32;12.85;;;4.45;;
66179;SDS011;52986;44.028;20.466;2023-05-10T03:55:57;12.77;;;4.93;;
66179;SDS011;52986;44.028;20.466;2023-05-10T03:58:23;12.00;;;5.13;;
66179;SDS011;52986;44.028;20.466;2023-05-10T04:00:48;8.70;;;3.30;;
66179;SDS011;52986;44.028;20.466;2023-05-10T04:03:13;7.75;;;3.22;;
66179;SDS011;52986;44.028;20.466;2023-05-10T04:05:39;6.82;;;2.90;;
66179;SDS011;52986;44.028;20.466;2023-05-10T04:08:05;8.38;;;3.55;;
66179;SDS011;52986;44.028;20.466;2023-05-10T04:10:30;8.90;;;3.10;;
66179;SDS011;52986;44.028;20.466;2023-05-10T04:12:56;8.48;;;3.40;;
66179;SDS011;52986;44.028;20.466;2023-05-10T04:15:21;8.32;;;3.33;;
66179;SDS011;52986;44.028;20.466;2023-05-10T04:17:47;8.32;;;3.17;;
66179;SDS011;52986;44.028;20.466;2023-05-10T04:20:12;7.88;;;3.20;;
66179;SDS011;52986;44.028;20.466;2023-05-10T04:22:38;7.63;;;3.25;;
66179;SDS011;52986;44.028;20.466;2023-05-10T04:25:04;8.82;;;3.17;;
66179;SDS011;52986;44.028;20.466;2023-05-10T04:27:30;8.18;;;3.25;;
66179;SDS011;52986;44.028;20.466;2023-05-10T04:29:56;8.25;;;3.28;;
66179;SDS011;52986;44.028;20.466;2023-05-10T04:32:21;8.00;;;3.08;;
66179;SDS011;52986;44.028;20.466;2023-05-10T04:34:47;8.38;;;3.33;;
66179;SDS011;52986;44.028;20.466;2023-05-10T04:37:12;7.63;;;3.38;;
66179;SDS011;52986;44.028;20.466;2023-05-10T04:39:37;7.32;;;3.00;;
66179;SDS011;52986;44.028;20.466;2023-05-10T04:42:03;7.38;;;3.22;;
66179;SDS011;52986;44.028;20.466;2023-05-10T04:44:30;11.30;;;5.68;;
66179;SDS011;52986;44.028;20.466;2023-05-10T04:46:56;14.35;;;6.13;;
66179;SDS011;52986;44.028;20.466;2023-05-10T04:49:22;10.27;;;4.13;;
66179;SDS011;52986;44.028;20.466;2023-05-10T04:51:47;6.70;;;2.78;;
66179;SDS011;52986;44.028;20.466;2023-05-10T04:54:12;6.95;;;2.90;;
66179;SDS011;52986;44.028;20.466;2023-05-10T04:56:38;6.97;;;2.65;;
66179;SDS011;52986;44.028;20.466;2023-05-10T04:59:03;6.45;;;2.47;;
66179;SDS011;52986;44.028;20.466;2023-05-10T05:01:28;6.57;;;2.67;;
66179;SDS011;52986;44.028;20.466;2023-05-10T05:03:54;6.15;;;2.55;;
66179;SDS011;52986;44.028;20.466;2023-05-10T05:06:19;7.75;;;2.95;;
66179;SDS011;52986;44.028;20.466;2023-05-10T05:08:46;6.00;;;2.30;;
66179;SDS011;52986;44.028;20.466;2023-05-10T05:11:11;5.18;;;2.17;;
66179;SDS011;52986;44.028;20.466;2023-05-10T05:13:37;4.75;;;2.20;;
66179;SDS011;52986;44.028;20.466;2023-05-10T05:16:02;5.35;;;2.25;;
66179;SDS011;52986;44.028;20.466;2023-05-10T05:18:28;6.05;;;1.98;;
66179;SDS011;52986;44.028;20.466;2023-05-10T05:20:54;7.32;;;2.20;;
66179;SDS011;52986;44.028;20.466;2023-05-10T05:23:19;6.13;;;2.22;;
66179;SDS011;52986;44.028;20.466;2023-05-10T05:25:45;4.97;;;1.92;;
66179;SDS011;52986;44.028;20.466;2023-05-10T05:28:11;5.03;;;2.00;;
66179;SDS011;52986;44.028;20.466;2023-05-10T05:30:37;4.63;;;2.00;;
66179;SDS011;52986;44.028;20.466;2023-05-10T05:33:02;4.05;;;1.70;;
66179;SDS011;52986;44.028;20.466;2023-05-10T05:35:28;4.18;;;1.63;;
66179;SDS011;52986;44.028;20.466;2023-05-10T05:37:53;3.75;;;1.92;;
66179;SDS011;52986;44.028;20.466;2023-05-10T05:40:19;4.10;;;1.88;;
66179;SDS011;52986;44.028;20.466;2023-05-10T05:42:45;6.18;;;2.03;;
66179;SDS011;52986;44.028;20.466;2023-05-10T05:45:10;5.35;;;2.10;;
66179;SDS011;52986;44.028;20.466;2023-05-10T05:47:38;6.38;;;2.10;;
66179;SDS011;52986;44.028;20.466;2023-05-10T05:50:04;4.43;;;1.80;;
66179;SDS011;52986;44.028;20.466;2023-05-10T05:52:30;6.53;;;2.20;;
66179;SDS011;52986;44.028;20.466;2023-05-10T05:54:55;4.05;;;1.80;;
66179;SDS011;52986;44.028;20.466;2023-05-10T05:57:21;4.85;;;2.00;;
66179;SDS011;52986;44.028;20.466;2023-05-10T05:59:46;4.10;;;1.80;;
66179;SDS011;52986;44.028;20.466;2023-05-10T06:02:12;5.25;;;2.00;;
66179;SDS011;52986;44.028;20.466;2023-05-10T06:04:37;4.47;;;2.05;;
66179;SDS011;52986;44.028;20.466;2023-05-10T06:07:03;4.30;;;1.80;;
66179;SDS011;52986;44.028;20.466;2023-05-10T06:09:28;4.70;;;1.83;;
66179;SDS011;52986;44.028;20.466;2023-05-10T06:11:53;3.83;;;1.77;;
66179;SDS011;52986;44.028;20.466;2023-05-10T06:14:22;4.18;;;1.80;;
66179;SDS011;52986;44.028;20.466;2023-05-10T06:16:47;3.85;;;1.80;;
66179;SDS011;52986;44.028;20.466;2023-05-10T06:19:13;4.20;;;1.73;;
66179;SDS011;52986;44.028;20.466;2023-05-10T06:21:38;5.30;;;1.88;;
66179;SDS011;52986;44.028;20.466;2023-05-10T06:24:04;4.70;;;1.90;;
66179;SDS011;52986;44.028;20.466;2023-05-10T06:26:31;3.58;;;1.63;;
66179;SDS011;52986;44.028;20.466;2023-05-10T06:28:57;4.72;;;1.80;;
66179;SDS011;52986;44.028;20.466;2023-05-10T06:31:22;4.05;;;1.80;;
66179;SDS011;52986;44.028;20.466;2023-05-10T06:33:47;3.63;;;1.75;;
66179;SDS011;52986;44.028;20.466;2023-05-10T06:36:13;3.55;;;1.70;;
66179;SDS011;52986;44.028;20.466;2023-05-10T06:38:38;4.63;;;2.00;;
66179;SDS011;52986;44.028;20.466;2023-05-10T06:41:04;4.15;;;1.67;;
66179;SDS011;52986;44.028;20.466;2023-05-10T06:43:30;5.03;;;1.65;;
66179;SDS011;52986;44.028;20.466;2023-05-10T06:45:55;3.53;;;1.50;;
66179;SDS011;52986;44.028;20.466;2023-05-10T06:48:21;5.30;;;1.92;;
66179;SDS011;52986;44.028;20.466;2023-05-10T06:50:46;4.82;;;1.90;;
66179;SDS011;52986;44.028;20.466;2023-05-10T06:53:12;4.68;;;1.65;;
66179;SDS011;52986;44.028;20.466;2023-05-10T06:55:38;3.17;;;1.55;;
66179;SDS011;52986;44.028;20.466;2023-05-10T06:58:04;4.47;;;1.58;;
66179;SDS011;52986;44.028;20.466;2023-05-10T07:00:29;3.05;;;1.55;;
66179;SDS011;52986;44.028;20.466;2023-05-10T07:02:54;3.35;;;1.70;;
66179;SDS011;52986;44.028;20.466;2023-05-10T07:05:20;3.78;;;1.73;;
66179;SDS011;52986;44.028;20.466;2023-05-10T07:07:46;4.63;;;1.92;;
66179;SDS011;52986;44.028;20.466;2023-05-10T07:10:11;4.18;;;2.15;;
66179;SDS011;52986;44.028;20.466;2023-05-10T07:12:37;4.90;;;1.80;;
66179;SDS011;52986;44.028;20.466;2023-05-10T07:15:03;4.93;;;2.00;;
66179;SDS011;52986;44.028;20.466;2023-05-10T07:17:29;3.95;;;1.73;;
66179;SDS011;52986;44.028;20.466;2023-05-10T07:19:54;6.70;;;1.98;;
66179;SDS011;52986;44.028;20.466;2023-05-10T07:22:20;3.55;;;1.63;;
66179;SDS011;52986;44.028;20.466;2023-05-10T07:24:45;3.92;;;1.70;;
66179;SDS011;52986;44.028;20.466;2023-05-10T07:27:11;4.45;;;1.77;;
66179;SDS011;52986;44.028;20.466;2023-05-10T07:29:37;4.55;;;1.70;;
66179;SDS011;52986;44.028;20.466;2023-05-10T07:32:03;3.40;;;1.60;;
66179;SDS011;52986;44.028;20.466;2023-05-10T07:34:29;3.47;;;1.58;;
66179;SDS011;52986;44.028;20.466;2023-05-10T07:36:56;2.85;;;1.60;;
66179;SDS011;52986;44.028;20.466;2023-05-10T07:39:25;4.50;;;1.80;;
66179;SDS011;52986;44.028;20.466;2023-05-10T07:41:54;3.30;;;1.65;;
66179;SDS011;52986;44.028;20.466;2023-05-10T07:44:20;5.10;;;1.65;;
66179;SDS011;52986;44.028;20.466;2023-05-10T07:46:45;3.50;;;1.60;;
66179;SDS011;52986;44.028;20.466;2023-05-10T07:49:11;2.83;;;1.50;;
66179;SDS011;52986;44.028;20.466;2023-05-10T07:51:36;4.20;;;1.75;;
66179;SDS011;52986;44.028;20.466;2023-05-10T07:54:02;3.15;;;1.63;;
66179;SDS011;52986;44.028;20.466;2023-05-10T07:56:31;4.13;;;1.70;;
66179;SDS011;52986;44.028;20.466;2023-05-10T07:59:00;3.42;;;1.77;;
66179;SDS011;52986;44.028;20.466;2023-05-10T08:01:30;4.13;;;2.00;;
66179;SDS011;52986;44.028;20.466;2023-05-10T08:03:57;4.90;;;2.10;;
66179;SDS011;52986;44.028;20.466;2023-05-10T08:06:22;3.60;;;1.67;;
66179;SDS011;52986;44.028;20.466;2023-05-10T08:08:48;3.83;;;1.52;;
66179;SDS011;52986;44.028;20.466;2023-05-10T08:11:18;3.65;;;1.70;;
66179;SDS011;52986;44.028;20.466;2023-05-10T08:13:45;3.17;;;1.55;;
66179;SDS011;52986;44.028;20.466;2023-05-10T08:16:11;4.15;;;1.85;;
66179;SDS011;52986;44.028;20.466;2023-05-10T08:18:37;5.50;;;1.70;;
66179;SDS011;52986;44.028;20.466;2023-05-10T08:21:03;3.15;;;1.63;;
66179;SDS011;52986;44.028;20.466;2023-05-10T08:23:29;4.47;;;2.00;;
66179;SDS011;52986;44.028;20.466;2023-05-10T08:25:54;3.83;;;1.80;;
66179;SDS011;52986;44.028;20.466;2023-05-10T08:28:19;3.65;;;1.83;;
66179;SDS011;52986;44.028;20.466;2023-05-10T08:30:45;4.03;;;2.13;;
66179;SDS011;52986;44.028;20.466;2023-05-10T08:33:10;3.53;;;1.73;;
66179;SDS011;52986;44.028;20.466;2023-05-10T08:35:36;3.85;;;1.70;;
66179;SDS011;52986;44.028;20.466;2023-05-10T08:38:01;4.78;;;2.13;;
66179;SDS011;52986;44.028;20.466;2023-05-10T08:40:27;5.32;;;2.00;;
66179;SDS011;52986;44.028;20.466;2023-05-10T08:42:58;4.78;;;1.95;;
66179;SDS011;52986;44.028;20.466;2023-05-10T08:45:36;5.05;;;2.10;;
66179;SDS011;52986;44.028;20.466;2023-05-10T08:48:06;4.28;;;1.95;;
66179;SDS011;52986;44.028;20.466;2023-05-10T08:50:35;4.55;;;1.90;;
66179;SDS011;52986;44.028;20.466;2023-05-10T08:53:02;4.43;;;1.90;;
66179;SDS011;52986;44.028;20.466;2023-05-10T08:55:30;5.00;;;2.20;;
66179;SDS011;52986;44.028;20.466;2023-05-10T08:57:55;4.85;;;1.98;;
66179;SDS011;52986;44.028;20.466;2023-05-10T09:00:21;4.20;;;1.90;;
66179;SDS011;52986;44.028;20.466;2023-05-10T09:02:49;4.57;;;2.00;;
66179;SDS011;52986;44.028;20.466;2023-05-10T09:05:15;4.10;;;1.83;;
66179;SDS011;52986;44.028;20.466;2023-05-10T09:07:41;5.97;;;2.00;;
66179;SDS011;52986;44.028;20.466;2023-05-10T09:10:07;3.47;;;1.80;;
66179;SDS011;52986;44.028;20.466;2023-05-10T09:12:33;4.32;;;1.95;;
66179;SDS011;52986;44.028;20.466;2023-05-10T09:14:59;4.32;;;1.98;;
66179;SDS011;52986;44.028;20.466;2023-05-10T09:17:25;5.28;;;1.92;;
66179;SDS011;52986;44.028;20.466;2023-05-10T09:20:01;6.82;;;2.08;;
66179;SDS011;52986;44.028;20.466;2023-05-10T09:22:29;3.63;;;1.80;;
66179;SDS011;52986;44.028;20.466;2023-05-10T09:27:30;3.60;;;1.80;;
66179;SDS011;52986;44.028;20.466;2023-05-10T09:29:55;5.38;;;2.00;;
66179;SDS011;52986;44.028;20.466;2023-05-10T09:32:21;3.28;;;1.73;;
66179;SDS011;52986;44.028;20.466;2023-05-10T09:34:46;4.55;;;1.95;;
66179;SDS011;52986;44.028;20.466;2023-05-10T09:37:15;4.60;;;1.90;;
66179;SDS011;52986;44.028;20.466;2023-05-10T09:39:40;3.25;;;1.70;;
66179;SDS011;52986;44.028;20.466;2023-05-10T09:42:07;4.05;;;1.80;;
66179;SDS011;52986;44.028;20.466;2023-05-10T09:44:34;4.43;;;1.80;;
66179;SDS011;52986;44.028;20.466;2023-05-10T09:47:02;3.53;;;1.90;;
66179;SDS011;52986;44.028;20.466;2023-05-10T09:49:28;4.30;;;1.88;;
66179;SDS011;52986;44.028;20.466;2023-05-10T09:52:01;3.67;;;1.67;;
66179;SDS011;52986;44.028;20.466;2023-05-10T09:54:30;4.13;;;2.08;;
66179;SDS011;52986;44.028;20.466;2023-05-10T09:56:56;4.20;;;1.90;;
66179;SDS011;52986;44.028;20.466;2023-05-10T09:59:21;3.72;;;1.80;;
66179;SDS011;52986;44.028;20.466;2023-05-10T10:01:51;4.35;;;1.75;;
66179;SDS011;52986;44.028;20.466;2023-05-10T10:04:17;4.65;;;2.10;;
66179;SDS011;52986;44.028;20.466;2023-05-10T10:06:42;3.88;;;1.80;;
66179;SDS011;52986;44.028;20.466;2023-05-10T10:09:08;3.83;;;1.67;;
66179;SDS011;52986;44.028;20.466;2023-05-10T10:11:34;4.38;;;1.70;;
66179;SDS011;52986;44.028;20.466;2023-05-10T10:14:01;3.70;;;1.77;;
66179;SDS011;52986;44.028;20.466;2023-05-10T10:16:27;3.85;;;1.70;;
66179;SDS011;52986;44.028;20.466;2023-05-10T10:18:54;3.97;;;1.67;;
66179;SDS011;52986;44.028;20.466;2023-05-10T10:21:20;3.90;;;1.88;;
66179;SDS011;52986;44.028;20.466;2023-05-10T10:23:47;4.53;;;1.80;;
66179;SDS011;52986;44.028;20.466;2023-05-10T10:26:12;4.15;;;1.70;;
66179;SDS011;52986;44.028;20.466;2023-05-10T10:28:46;2.92;;;1.52;;
66179;SDS011;52986;44.028;20.466;2023-05-10T10:36:45;3.42;;;1.50;;
66179;SDS011;52986;44.028;20.466;2023-05-10T10:39:12;5.30;;;1.70;;
66179;SDS011;52986;44.028;20.466;2023-05-10T10:41:39;5.32;;;1.60;;
66179;SDS011;52986;44.028;20.466;2023-05-10T10:49:33;3.85;;;1.70;;
66179;SDS011;52986;44.028;20.466;2023-05-10T10:54:57;4.32;;;1.73;;
66179;SDS011;52986;44.028;20.466;2023-05-10T10:57:26;8.15;;;1.80;;
66179;SDS011;52986;44.028;20.466;2023-05-10T11:02:52;5.40;;;1.98;;
66179;SDS011;52986;44.028;20.466;2023-05-10T11:07:53;4.70;;;2.17;;
66179;SDS011;52986;44.028;20.466;2023-05-10T11:10:20;5.57;;;1.95;;
66179;SDS011;52986;44.028;20.466;2023-05-10T11:12:53;6.18;;;1.90;;
66179;SDS011;52986;44.028;20.466;2023-05-10T11:15:36;5.22;;;2.05;;
66179;SDS011;52986;44.028;20.466;2023-05-10T11:18:18;4.25;;;1.95;;
66179;SDS011;52986;44.028;20.466;2023-05-10T11:20:49;8.05;;;1.98;;
66179;SDS011;52986;44.028;20.466;2023-05-10T11:23:21;6.78;;;2.17;;
66179;SDS011;52986;44.028;20.466;2023-05-10T11:25:47;5.28;;;2.00;;
66179;SDS011;52986;44.028;20.466;2023-05-10T11:28:14;5.47;;;2.15;;
66179;SDS011;52986;44.028;20.466;2023-05-10T11:30:42;7.07;;;2.25;;
66179;SDS011;52986;44.028;20.466;2023-05-10T11:33:09;5.10;;;2.17;;
66179;SDS011;52986;44.028;20.466;2023-05-10T11:35:40;4.57;;;2.20;;
66179;SDS011;52986;44.028;20.466;2023-05-10T11:38:06;6.05;;;1.98;;
66179;SDS011;52986;44.028;20.466;2023-05-10T11:40:35;5.95;;;2.17;;
66179;SDS011;52986;44.028;20.466;2023-05-10T11:43:01;5.18;;;2.20;;
66179;SDS011;52986;44.028;20.466;2023-05-10T11:45:27;4.15;;;2.00;;
66179;SDS011;52986;44.028;20.466;2023-05-10T11:47:55;6.50;;;2.45;;
66179;SDS011;52986;44.028;20.466;2023-05-10T11:50:21;6.22;;;2.33;;
66179;SDS011;52986;44.028;20.466;2023-05-10T11:52:51;5.53;;;2.20;;
66179;SDS011;52986;44.028;20.466;2023-05-10T11:55:17;6.18;;;2.10;;
66179;SDS011;52986;44.028;20.466;2023-05-10T11:57:42;4.97;;;2.47;;
66179;SDS011;52986;44.028;20.466;2023-05-10T12:00:10;6.95;;;2.78;;
66179;SDS011;52986;44.028;20.466;2023-05-10T12:02:38;5.82;;;2.45;;
66179;SDS011;52986;44.028;20.466;2023-05-10T12:05:04;5.30;;;2.00;;
66179;SDS011;52986;44.028;20.466;2023-05-10T12:07:30;5.78;;;2.33;;
66179;SDS011;52986;44.028;20.466;2023-05-10T12:10:05;4.97;;;2.10;;
66179;SDS011;52986;44.028;20.466;2023-05-10T12:12:39;8.77;;;2.55;;
66179;SDS011;52986;44.028;20.466;2023-05-10T12:15:16;4.47;;;2.10;;
66179;SDS011;52986;44.028;20.466;2023-05-10T12:17:44;5.57;;;2.30;;
66179;SDS011;52986;44.028;20.466;2023-05-10T12:20:17;5.35;;;2.25;;
66179;SDS011;52986;44.028;20.466;2023-05-10T12:22:51;5.15;;;2.40;;
66179;SDS011;52986;44.028;20.466;2023-05-10T12:25:18;11.25;;;2.50;;
66179;SDS011;52986;44.028;20.466;2023-05-10T12:27:49;5.53;;;2.30;;
66179;SDS011;52986;44.028;20.466;2023-05-10T12:30:22;6.65;;;2.80;;
66179;SDS011;52986;44.028;20.466;2023-05-10T12:32:49;5.88;;;2.42;;
66179;SDS011;52986;44.028;20.466;2023-05-10T12:35:15;5.93;;;2.35;;
66179;SDS011;52986;44.028;20.466;2023-05-10T12:37:41;5.30;;;2.30;;
66179;SDS011;52986;44.028;20.466;2023-05-10T12:40:10;5.90;;;2.50;;
66179;SDS011;52986;44.028;20.466;2023-05-10T12:42:37;5.53;;;2.42;;
66179;SDS011;52986;44.028;20.466;2023-05-10T12:45:04;5.78;;;2.50;;
66179;SDS011;52986;44.028;20.466;2023-05-10T12:47:30;6.22;;;2.60;;
66179;SDS011;52986;44.028;20.466;2023-05-10T12:49:59;5.82;;;2.35;;
66179;SDS011;52986;44.028;20.466;2023-05-10T12:52:25;6.05;;;2.55;;
66179;SDS011;52986;44.028;20.466;2023-05-10T12:54:51;8.23;;;2.58;;
66179;SDS011;52986;44.028;20.466;2023-05-10T12:57:17;7.25;;;2.80;;
66179;SDS011;52986;44.028;20.466;2023-05-10T12:59:43;6.20;;;2.92;;
66179;SDS011;52986;44.028;20.466;2023-05-10T13:02:08;6.97;;;2.50;;
66179;SDS011;52986;44.028;20.466;2023-05-10T13:04:34;7.30;;;3.03;;
66179;SDS011;52986;44.028;20.466;2023-05-10T13:06:59;6.18;;;2.63;;
66179;SDS011;52986;44.028;20.466;2023-05-10T13:09:25;7.45;;;2.97;;
66179;SDS011;52986;44.028;20.466;2023-05-10T13:11:53;6.35;;;2.80;;
66179;SDS011;52986;44.028;20.466;2023-05-10T13:14:19;6.18;;;2.53;;
66179;SDS011;52986;44.028;20.466;2023-05-10T13:16:45;8.38;;;2.70;;
66179;SDS011;52986;44.028;20.466;2023-05-10T13:19:12;6.72;;;2.90;;
66179;SDS011;52986;44.028;20.466;2023-05-10T13:21:37;6.93;;;2.75;;
66179;SDS011;52986;44.028;20.466;2023-05-10T13:24:03;8.50;;;3.00;;
66179;SDS011;52986;44.028;20.466;2023-05-10T13:26:29;6.78;;;2.83;;
66179;SDS011;52986;44.028;20.466;2023-05-10T13:28:54;6.53;;;2.60;;
66179;SDS011;52986;44.028;20.466;2023-05-10T13:31:20;6.78;;;2.75;;
66179;SDS011;52986;44.028;20.466;2023-05-10T13:33:46;8.98;;;2.95;;
66179;SDS011;52986;44.028;20.466;2023-05-10T13:36:11;7.30;;;2.70;;
66179;SDS011;52986;44.028;20.466;2023-05-10T13:38:36;7.28;;;2.83;;
66179;SDS011;52986;44.028;20.466;2023-05-10T13:41:02;10.43;;;3.15;;
66179;SDS011;52986;44.028;20.466;2023-05-10T13:43:28;6.80;;;2.50;;
66179;SDS011;52986;44.028;20.466;2023-05-10T13:45:54;5.53;;;2.53;;
66179;SDS011;52986;44.028;20.466;2023-05-10T13:48:19;6.88;;;2.78;;
66179;SDS011;52986;44.028;20.466;2023-05-10T13:50:45;7.65;;;2.70;;
66179;SDS011;52986;44.028;20.466;2023-05-10T13:53:11;7.80;;;2.88;;
66179;SDS011;52986;44.028;20.466;2023-05-10T13:55:36;8.43;;;2.85;;
66179;SDS011;52986;44.028;20.466;2023-05-10T13:58:02;5.38;;;2.42;;
66179;SDS011;52986;44.028;20.466;2023-05-10T14:00:27;6.43;;;2.60;;
66179;SDS011;52986;44.028;20.466;2023-05-10T14:02:53;7.55;;;2.97;;
66179;SDS011;52986;44.028;20.466;2023-05-10T14:05:18;7.03;;;3.00;;
66179;SDS011;52986;44.028;20.466;2023-05-10T14:07:44;6.97;;;2.75;;
66179;SDS011;52986;44.028;20.466;2023-05-10T14:10:09;6.95;;;2.92;;
66179;SDS011;52986;44.028;20.466;2023-05-10T14:12:35;6.50;;;2.80;;
66179;SDS011;52986;44.028;20.466;2023-05-10T14:15:01;8.70;;;3.10;;
66179;SDS011;52986;44.028;20.466;2023-05-10T14:17:27;6.40;;;2.90;;
66179;SDS011;52986;44.028;20.466;2023-05-10T14:19:52;6.78;;;2.72;;
66179;SDS011;52986;44.028;20.466;2023-05-10T14:22:18;7.03;;;3.17;;
66179;SDS011;52986;44.028;20.466;2023-05-10T14:24:43;7.70;;;3.55;;
66179;SDS011;52986;44.028;20.466;2023-05-10T14:27:11;7.30;;;2.67;;
66179;SDS011;52986;44.028;20.466;2023-05-10T14:29:37;8.35;;;2.75;;
66179;SDS011;52986;44.028;20.466;2023-05-10T14:32:03;6.78;;;2.80;;
66179;SDS011;52986;44.028;20.466;2023-05-10T14:34:28;7.35;;;2.95;;
66179;SDS011;52986;44.028;20.466;2023-05-10T14:36:53;7.00;;;3.00;;
66179;SDS011;52986;44.028;20.466;2023-05-10T14:39:20;8.75;;;2.75;;
66179;SDS011;52986;44.028;20.466;2023-05-10T14:41:45;6.32;;;2.67;;
66179;SDS011;52986;44.028;20.466;2023-05-10T14:44:12;9.02;;;3.03;;
66179;SDS011;52986;44.028;20.466;2023-05-10T14:46:37;5.82;;;2.70;;
66179;SDS011;52986;44.028;20.466;2023-05-10T14:49:03;6.65;;;2.72;;
66179;SDS011;52986;44.028;20.466;2023-05-10T14:51:28;7.40;;;2.83;;
66179;SDS011;52986;44.028;20.466;2023-05-10T14:53:54;8.13;;;2.72;;
66179;SDS011;52986;44.028;20.466;2023-05-10T14:56:19;7.85;;;3.10;;
66179;SDS011;52986;44.028;20.466;2023-05-10T14:58:45;6.43;;;2.70;;
66179;SDS011;52986;44.028;20.466;2023-05-10T15:01:10;8.13;;;2.72;;
66179;SDS011;52986;44.028;20.466;2023-05-10T15:03:36;8.07;;;2.90;;
66179;SDS011;52986;44.028;20.466;2023-05-10T15:06:01;6.90;;;2.70;;
66179;SDS011;52986;44.028;20.466;2023-05-10T15:08:28;8.27;;;3.20;;
66179;SDS011;52986;44.028;20.466;2023-05-10T15:10:54;9.48;;;3.00;;